Flight Track Log - Related Links

Times and Time Zones

All times are in EDT time to prevent confusion due to time zone crossing. See the ASQ4283 flight status page for this flight to view local times or setup timezone preferences in your user account.

Time Position Orientation Groundspeed Altitude Reporting Facility
EDT Latitude Longitude Course Direction KTS MPH feet Rate Location/Type
Sat 12:03:13 PM 42.0383 -87.9156 66° East 178 205 3,000  Level Chicago Center
Sat 12:04:14 PM 42.0969 -87.8978 13° North 210 242 4,600 1,317 Climbing Chicago Center
Sat 12:05:00 PM 42.0718 -87.6122 62° Northeast  Level FlightAware Approximate
Sat 12:05:16 PM 42.1678 -87.8728 15° North 254 292 5,700  Level Chicago Center
Sat 12:06:00 PM 42.1067 -87.5142 59° Northeast  Level FlightAware Approximate
Sat 12:06:18 PM 42.1972 -87.7928 64° Northeast 265 305 7,900  Level Chicago Center
Sat 12:07:00 PM 42.1489 -87.4192 59° Northeast  Level FlightAware Approximate
Sat 12:07:20 PM 42.2081 -87.6911 82° East 273 314 10,000  Level Chicago Center
Sat 12:08:00 PM 42.1828 -87.3184 66° East  Level FlightAware Approximate
Sat 12:08:22 PM 42.2236 -87.5542 81° East 314 361 10,900  Level Chicago Center
Sat 12:09:24 PM 42.2389 -87.4236 81° East 348 400 12,100 1,306 Climbing Chicago Center
Sat 12:10:26 PM 42.2536 -87.2900 81° East 359 413 13,600 1,452 Climbing Chicago Center
Sat 12:11:28 PM 42.2678 -87.1567 82° East 361 415 15,100 1,452 Climbing Chicago Center
Sat 12:12:30 PM 42.2797 -87.0239 83° East 358 412 16,600 1,742 Climbing Chicago Center
Sat 12:13:32 PM 42.2875 -86.8628 86° East 361 415 18,700 1,161 Climbing Chicago Center
Sat 12:14:34 PM 42.2925 -86.7233 87° East 373 429 19,000 145 Climbing Chicago Center
Sat 12:15:36 PM 42.2983 -86.5789 87° East 405 466 19,000  Level Chicago Center
Sat 12:16:39 PM 42.3042 -86.4008 87° East 415 478 19,000  Level Chicago Center
Sat 12:17:41 PM 42.3108 -86.2447 87° East 419 482 19,000 -242 Level Chicago Center
Sat 12:18:43 PM 42.3392 -86.0947 76° East 424 488 18,500 -1,742 Descending Chicago Center
Sat 12:19:45 PM 42.4258 -85.9922 41° Northeast 406 467 15,400 -2,952 Descending Chicago Center
Sat 12:20:47 PM 42.5075 -85.9072 37° Northeast 389 448 12,400 -2,468 Descending Chicago Center
Sat 12:21:49 PM 42.5578 -85.7736 63° Northeast 336 387 10,300 -2,129 Descending Chicago Center
Sat 12:22:51 PM 42.5897 -85.6767 66° East 301 346 8,000 -2,323 Descending Chicago Center
Sat 12:23:53 PM 42.6203 -85.5883 65° Northeast 274 315 5,500 -2,419 Descending Chicago Center
Sat 12:24:55 PM 42.6519 -85.5075 62° Northeast 255 293 3,000 -2,419 Descending Chicago Center

Login

Don't have an account? Register now (free) for customized features, flight alerts, and more!